sensor_id;sensor_type;location;lat;lon;timestamp;temperature;humidity
14252;DHT22;7210;51.502;10.722;2023-03-23T00:02:24;9.30;99.90
14252;DHT22;7210;51.502;10.722;2023-03-23T00:04:52;9.40;99.90
14252;DHT22;7210;51.502;10.722;2023-03-23T00:07:20;9.50;99.90
14252;DHT22;7210;51.502;10.722;2023-03-23T00:09:50;9.70;99.90
14252;DHT22;7210;51.502;10.722;2023-03-23T00:12:20;9.80;99.90
14252;DHT22;7210;51.502;10.722;2023-03-23T00:14:58;10.00;99.90
14252;DHT22;7210;51.502;10.722;2023-03-23T00:17:27;10.10;99.90
14252;DHT22;7210;51.502;10.722;2023-03-23T00:19:55;10.20;99.90
14252;DHT22;7210;51.502;10.722;2023-03-23T00:22:23;10.50;99.90
14252;DHT22;7210;51.502;10.722;2023-03-23T00:24:51;10.70;99.90
14252;DHT22;7210;51.502;10.722;2023-03-23T00:27:18;10.80;99.90
14252;DHT22;7210;51.502;10.722;2023-03-23T00:29:47;10.90;99.90
14252;DHT22;7210;51.502;10.722;2023-03-23T00:32:19;11.00;99.90
14252;DHT22;7210;51.502;10.722;2023-03-23T00:34:56;11.00;99.90
14252;DHT22;7210;51.502;10.722;2023-03-23T00:37:25;11.00;99.90
14252;DHT22;7210;51.502;10.722;2023-03-23T00:39:52;10.90;99.90
14252;DHT22;7210;51.502;10.722;2023-03-23T00:42:23;10.80;99.90
14252;DHT22;7210;51.502;10.722;2023-03-23T00:44:51;10.80;99.90
14252;DHT22;7210;51.502;10.722;2023-03-23T00:47:25;10.80;99.90
14252;DHT22;7210;51.502;10.722;2023-03-23T00:49:52;10.70;99.90
14252;DHT22;7210;51.502;10.722;2023-03-23T00:52:23;10.70;99.90
14252;DHT22;7210;51.502;10.722;2023-03-23T00:54:50;10.70;99.90
14252;DHT22;7210;51.502;10.722;2023-03-23T00:57:17;10.70;99.90
14252;DHT22;7210;51.502;10.722;2023-03-23T00:59:45;10.80;99.90
14252;DHT22;7210;51.502;10.722;2023-03-23T01:02:14;10.80;99.90
14252;DHT22;7210;51.502;10.722;2023-03-23T01:04:42;10.80;99.90
14252;DHT22;7210;51.502;10.722;2023-03-23T01:07:10;10.80;99.90
14252;DHT22;7210;51.502;10.722;2023-03-23T01:09:40;10.80;99.90
14252;DHT22;7210;51.502;10.722;2023-03-23T01:12:11;10.80;99.90
14252;DHT22;7210;51.502;10.722;2023-03-23T01:14:40;10.80;99.90
14252;DHT22;7210;51.502;10.722;2023-03-23T01:17:09;10.90;99.90
14252;DHT22;7210;51.502;10.722;2023-03-23T01:19:36;10.90;99.90
14252;DHT22;7210;51.502;10.722;2023-03-23T01:22:03;10.90;99.90
14252;DHT22;7210;51.502;10.722;2023-03-23T01:24:31;10.90;99.90
14252;DHT22;7210;51.502;10.722;2023-03-23T01:26:59;10.90;99.90
14252;DHT22;7210;51.502;10.722;2023-03-23T01:29:32;10.90;99.90
14252;DHT22;7210;51.502;10.722;2023-03-23T01:32:00;10.90;99.90
14252;DHT22;7210;51.502;10.722;2023-03-23T01:34:27;10.80;99.90
14252;DHT22;7210;51.502;10.722;2023-03-23T01:36:55;10.80;99.90
14252;DHT22;7210;51.502;10.722;2023-03-23T01:39:22;10.90;99.90
14252;DHT22;7210;51.502;10.722;2023-03-23T01:41:49;10.90;99.90
14252;DHT22;7210;51.502;10.722;2023-03-23T01:48:00;11.00;99.90
14252;DHT22;7210;51.502;10.722;2023-03-23T01:50:36;11.00;99.90
14252;DHT22;7210;51.502;10.722;2023-03-23T01:53:08;11.10;99.90
14252;DHT22;7210;51.502;10.722;2023-03-23T01:55:40;11.20;99.90
14252;DHT22;7210;51.502;10.722;2023-03-23T01:58:11;11.30;99.90
14252;DHT22;7210;51.502;10.722;2023-03-23T02:00:39;11.30;99.90
14252;DHT22;7210;51.502;10.722;2023-03-23T02:03:10;11.20;99.90
14252;DHT22;7210;51.502;10.722;2023-03-23T02:05:42;11.00;99.90
14252;DHT22;7210;51.502;10.722;2023-03-23T02:08:17;11.00;99.90
14252;DHT22;7210;51.502;10.722;2023-03-23T02:10:46;10.90;99.90
14252;DHT22;7210;51.502;10.722;2023-03-23T02:13:14;10.80;99.90
14252;DHT22;7210;51.502;10.722;2023-03-23T02:15:47;10.70;99.90
14252;DHT22;7210;51.502;10.722;2023-03-23T02:18:37;10.70;99.90
14252;DHT22;7210;51.502;10.722;2023-03-23T02:21:34;10.60;99.90
14252;DHT22;7210;51.502;10.722;2023-03-23T02:27:53;10.50;99.90
14252;DHT22;7210;51.502;10.722;2023-03-23T02:30:46;10.40;99.90
14252;DHT22;7210;51.502;10.722;2023-03-23T02:33:39;10.30;99.90
14252;DHT22;7210;51.502;10.722;2023-03-23T02:36:16;10.30;99.90
14252;DHT22;7210;51.502;10.722;2023-03-23T02:38:55;10.20;99.90
14252;DHT22;7210;51.502;10.722;2023-03-23T02:41:30;10.20;99.90
14252;DHT22;7210;51.502;10.722;2023-03-23T02:44:03;10.10;99.90
14252;DHT22;7210;51.502;10.722;2023-03-23T02:46:31;10.10;99.90
14252;DHT22;7210;51.502;10.722;2023-03-23T02:49:03;10.10;99.90
14252;DHT22;7210;51.502;10.722;2023-03-23T02:51:34;10.10;99.90
14252;DHT22;7210;51.502;10.722;2023-03-23T02:54:05;10.20;99.90
14252;DHT22;7210;51.502;10.722;2023-03-23T02:56:35;10.20;99.90
14252;DHT22;7210;51.502;10.722;2023-03-23T02:59:09;10.40;99.90
14252;DHT22;7210;51.502;10.722;2023-03-23T03:01:53;10.40;99.90
14252;DHT22;7210;51.502;10.722;2023-03-23T03:04:28;10.60;99.90
14252;DHT22;7210;51.502;10.722;2023-03-23T03:07:10;10.50;99.90
14252;DHT22;7210;51.502;10.722;2023-03-23T03:12:51;10.60;99.90
14252;DHT22;7210;51.502;10.722;2023-03-23T03:15:29;10.60;99.90
14252;DHT22;7210;51.502;10.722;2023-03-23T03:18:06;10.70;99.90
14252;DHT22;7210;51.502;10.722;2023-03-23T03:23:31;10.70;99.90
14252;DHT22;7210;51.502;10.722;2023-03-23T03:26:04;10.80;99.90
14252;DHT22;7210;51.502;10.722;2023-03-23T03:28:49;10.80;99.90
14252;DHT22;7210;51.502;10.722;2023-03-23T03:31:21;10.80;99.90
14252;DHT22;7210;51.502;10.722;2023-03-23T03:33:53;10.80;99.90
14252;DHT22;7210;51.502;10.722;2023-03-23T03:36:24;10.70;99.90
14252;DHT22;7210;51.502;10.722;2023-03-23T03:39:04;10.80;99.90
14252;DHT22;7210;51.502;10.722;2023-03-23T03:41:33;10.70;99.90
14252;DHT22;7210;51.502;10.722;2023-03-23T03:44:01;10.80;99.90
14252;DHT22;7210;51.502;10.722;2023-03-23T03:46:29;10.70;99.90
14252;DHT22;7210;51.502;10.722;2023-03-23T03:48:57;10.70;99.90
14252;DHT22;7210;51.502;10.722;2023-03-23T03:51:25;10.60;99.90
14252;DHT22;7210;51.502;10.722;2023-03-23T03:53:54;10.70;99.90
14252;DHT22;7210;51.502;10.722;2023-03-23T03:56:24;10.60;99.90
14252;DHT22;7210;51.502;10.722;2023-03-23T03:59:04;10.70;99.90
14252;DHT22;7210;51.502;10.722;2023-03-23T04:01:49;10.70;99.90
14252;DHT22;7210;51.502;10.722;2023-03-23T04:04:20;10.70;99.90
14252;DHT22;7210;51.502;10.722;2023-03-23T04:06:47;10.90;99.90
14252;DHT22;7210;51.502;10.722;2023-03-23T04:09:15;10.90;99.90
14252;DHT22;7210;51.502;10.722;2023-03-23T04:11:47;10.90;99.90
14252;DHT22;7210;51.502;10.722;2023-03-23T04:14:35;10.90;99.90
14252;DHT22;7210;51.502;10.722;2023-03-23T04:17:02;10.90;99.90
14252;DHT22;7210;51.502;10.722;2023-03-23T04:19:29;10.80;99.90
14252;DHT22;7210;51.502;10.722;2023-03-23T04:21:59;10.80;99.90
14252;DHT22;7210;51.502;10.722;2023-03-23T04:24:28;10.80;99.90
14252;DHT22;7210;51.502;10.722;2023-03-23T04:26:59;10.70;99.90
14252;DHT22;7210;51.502;10.722;2023-03-23T04:29:29;10.70;99.90
14252;DHT22;7210;51.502;10.722;2023-03-23T04:32:19;10.70;99.90
14252;DHT22;7210;51.502;10.722;2023-03-23T04:34:51;10.60;99.90
14252;DHT22;7210;51.502;10.722;2023-03-23T04:37:23;10.60;99.90
14252;DHT22;7210;51.502;10.722;2023-03-23T04:39:55;10.60;99.90
14252;DHT22;7210;51.502;10.722;2023-03-23T04:42:31;10.50;99.90
14252;DHT22;7210;51.502;10.722;2023-03-23T04:45:21;10.50;99.90
14252;DHT22;7210;51.502;10.722;2023-03-23T04:47:54;10.50;99.90
14252;DHT22;7210;51.502;10.722;2023-03-23T04:50:35;10.50;99.90
14252;DHT22;7210;51.502;10.722;2023-03-23T04:53:14;10.40;99.90
14252;DHT22;7210;51.502;10.722;2023-03-23T04:55:44;10.40;99.90
14252;DHT22;7210;51.502;10.722;2023-03-23T04:58:17;10.40;99.90
14252;DHT22;7210;51.502;10.722;2023-03-23T05:01:05;10.40;99.90
14252;DHT22;7210;51.502;10.722;2023-03-23T05:03:40;10.40;99.90
14252;DHT22;7210;51.502;10.722;2023-03-23T05:06:07;10.30;99.90
14252;DHT22;7210;51.502;10.722;2023-03-23T05:08:36;10.30;99.90
14252;DHT22;7210;51.502;10.722;2023-03-23T05:11:08;10.30;99.90
14252;DHT22;7210;51.502;10.722;2023-03-23T05:13:40;10.30;99.90
14252;DHT22;7210;51.502;10.722;2023-03-23T05:16:08;10.30;99.90
14252;DHT22;7210;51.502;10.722;2023-03-23T05:18:38;10.30;99.90
14252;DHT22;7210;51.502;10.722;2023-03-23T05:21:08;10.30;99.90
14252;DHT22;7210;51.502;10.722;2023-03-23T05:23:39;10.40;99.90
14252;DHT22;7210;51.502;10.722;2023-03-23T05:26:16;10.20;99.90
14252;DHT22;7210;51.502;10.722;2023-03-23T05:28:44;10.30;99.90
14252;DHT22;7210;51.502;10.722;2023-03-23T05:31:22;10.20;99.90
14252;DHT22;7210;51.502;10.722;2023-03-23T05:33:50;10.20;99.90
14252;DHT22;7210;51.502;10.722;2023-03-23T05:36:27;10.10;99.90
14252;DHT22;7210;51.502;10.722;2023-03-23T05:39:11;10.00;99.90
14252;DHT22;7210;51.502;10.722;2023-03-23T05:41:58;10.00;99.90
14252;DHT22;7210;51.502;10.722;2023-03-23T05:44:41;9.90;99.90
14252;DHT22;7210;51.502;10.722;2023-03-23T05:47:09;9.90;99.90
14252;DHT22;7210;51.502;10.722;2023-03-23T05:49:40;9.80;99.90
14252;DHT22;7210;51.502;10.722;2023-03-23T05:52:11;9.80;99.90
14252;DHT22;7210;51.502;10.722;2023-03-23T05:54:39;9.80;99.90
14252;DHT22;7210;51.502;10.722;2023-03-23T05:57:07;9.80;99.90
14252;DHT22;7210;51.502;10.722;2023-03-23T05:59:45;9.70;99.90
14252;DHT22;7210;51.502;10.722;2023-03-23T06:02:19;9.70;99.90
14252;DHT22;7210;51.502;10.722;2023-03-23T06:04:47;9.70;99.90
14252;DHT22;7210;51.502;10.722;2023-03-23T06:07:25;9.70;99.90
14252;DHT22;7210;51.502;10.722;2023-03-23T06:09:58;9.70;99.90
14252;DHT22;7210;51.502;10.722;2023-03-23T06:12:25;9.70;99.90
14252;DHT22;7210;51.502;10.722;2023-03-23T06:15:00;9.70;99.90
14252;DHT22;7210;51.502;10.722;2023-03-23T06:17:48;9.70;99.90
14252;DHT22;7210;51.502;10.722;2023-03-23T06:20:16;9.70;99.90
14252;DHT22;7210;51.502;10.722;2023-03-23T06:22:44;9.70;99.90
14252;DHT22;7210;51.502;10.722;2023-03-23T06:25:26;9.80;99.90
14252;DHT22;7210;51.502;10.722;2023-03-23T06:27:55;9.90;99.90
14252;DHT22;7210;51.502;10.722;2023-03-23T06:30:25;10.00;99.90
14252;DHT22;7210;51.502;10.722;2023-03-23T06:32:57;10.10;99.90
14252;DHT22;7210;51.502;10.722;2023-03-23T06:35:45;10.10;99.90
14252;DHT22;7210;51.502;10.722;2023-03-23T06:38:25;10.10;99.90
14252;DHT22;7210;51.502;10.722;2023-03-23T06:40:55;10.10;99.90
14252;DHT22;7210;51.502;10.722;2023-03-23T06:43:25;10.20;99.90
14252;DHT22;7210;51.502;10.722;2023-03-23T06:46:04;10.30;99.90
14252;DHT22;7210;51.502;10.722;2023-03-23T06:48:37;10.30;99.90
14252;DHT22;7210;51.502;10.722;2023-03-23T06:51:06;10.30;99.90
14252;DHT22;7210;51.502;10.722;2023-03-23T06:53:36;10.50;99.90
14252;DHT22;7210;51.502;10.722;2023-03-23T06:56:05;10.40;99.90
14252;DHT22;7210;51.502;10.722;2023-03-23T06:58:34;10.50;99.90
14252;DHT22;7210;51.502;10.722;2023-03-23T07:01:04;10.50;99.90
14252;DHT22;7210;51.502;10.722;2023-03-23T07:03:38;10.40;99.90
14252;DHT22;7210;51.502;10.722;2023-03-23T07:06:07;10.50;99.90
14252;DHT22;7210;51.502;10.722;2023-03-23T07:08:43;10.50;99.90
14252;DHT22;7210;51.502;10.722;2023-03-23T07:11:15;10.40;99.90
14252;DHT22;7210;51.502;10.722;2023-03-23T07:13:42;10.50;99.90
14252;DHT22;7210;51.502;10.722;2023-03-23T07:16:11;10.60;99.90
14252;DHT22;7210;51.502;10.722;2023-03-23T07:18:38;10.70;99.90
14252;DHT22;7210;51.502;10.722;2023-03-23T07:21:06;10.80;99.90
14252;DHT22;7210;51.502;10.722;2023-03-23T07:23:33;10.80;99.90
14252;DHT22;7210;51.502;10.722;2023-03-23T07:26:04;11.00;99.90
14252;DHT22;7210;51.502;10.722;2023-03-23T07:28:44;11.00;99.90
14252;DHT22;7210;51.502;10.722;2023-03-23T07:31:24;11.10;99.90
14252;DHT22;7210;51.502;10.722;2023-03-23T07:33:53;11.30;99.90
14252;DHT22;7210;51.502;10.722;2023-03-23T07:36:25;11.50;99.90
14252;DHT22;7210;51.502;10.722;2023-03-23T07:38:53;11.80;99.90
14252;DHT22;7210;51.502;10.722;2023-03-23T07:41:20;11.90;99.90
14252;DHT22;7210;51.502;10.722;2023-03-23T07:43:50;12.00;99.90
14252;DHT22;7210;51.502;10.722;2023-03-23T07:46:27;12.00;99.90
14252;DHT22;7210;51.502;10.722;2023-03-23T07:49:02;12.00;99.90
14252;DHT22;7210;51.502;10.722;2023-03-23T07:51:36;12.00;99.90
14252;DHT22;7210;51.502;10.722;2023-03-23T07:54:06;12.10;99.90
14252;DHT22;7210;51.502;10.722;2023-03-23T07:56:52;12.20;99.90
14252;DHT22;7210;51.502;10.722;2023-03-23T07:59:26;12.20;99.90
14252;DHT22;7210;51.502;10.722;2023-03-23T08:01:58;12.20;99.90
14252;DHT22;7210;51.502;10.722;2023-03-23T08:04:52;12.30;99.90
14252;DHT22;7210;51.502;10.722;2023-03-23T08:07:41;12.40;99.90
14252;DHT22;7210;51.502;10.722;2023-03-23T08:10:29;12.50;99.90
14252;DHT22;7210;51.502;10.722;2023-03-23T08:13:34;12.50;99.90
14252;DHT22;7210;51.502;10.722;2023-03-23T08:16:11;12.50;99.90
14252;DHT22;7210;51.502;10.722;2023-03-23T08:18:54;12.40;99.90
14252;DHT22;7210;51.502;10.722;2023-03-23T08:21:35;12.30;99.90
14252;DHT22;7210;51.502;10.722;2023-03-23T08:24:19;12.20;99.90
14252;DHT22;7210;51.502;10.722;2023-03-23T08:27:09;12.20;99.90
14252;DHT22;7210;51.502;10.722;2023-03-23T08:29:48;12.20;99.90
14252;DHT22;7210;51.502;10.722;2023-03-23T08:32:36;12.30;99.90
14252;DHT22;7210;51.502;10.722;2023-03-23T08:35:23;12.40;99.90
14252;DHT22;7210;51.502;10.722;2023-03-23T08:38:30;12.40;99.90
14252;DHT22;7210;51.502;10.722;2023-03-23T08:41:16;12.40;99.90
14252;DHT22;7210;51.502;10.722;2023-03-23T08:43:43;12.60;99.90
14252;DHT22;7210;51.502;10.722;2023-03-23T08:46:30;12.70;99.90
14252;DHT22;7210;51.502;10.722;2023-03-23T08:49:11;12.90;99.90
14252;DHT22;7210;51.502;10.722;2023-03-23T08:52:09;13.20;99.90
14252;DHT22;7210;51.502;10.722;2023-03-23T08:54:50;13.30;99.90
14252;DHT22;7210;51.502;10.722;2023-03-23T08:57:34;13.30;99.90
14252;DHT22;7210;51.502;10.722;2023-03-23T09:00:22;13.40;99.90
14252;DHT22;7210;51.502;10.722;2023-03-23T09:03:13;13.50;99.90
14252;DHT22;7210;51.502;10.722;2023-03-23T09:05:58;13.60;99.90
14252;DHT22;7210;51.502;10.722;2023-03-23T09:08:37;13.70;99.90
14252;DHT22;7210;51.502;10.722;2023-03-23T09:11:05;13.80;99.90
14252;DHT22;7210;51.502;10.722;2023-03-23T09:13:34;13.90;99.90
14252;DHT22;7210;51.502;10.722;2023-03-23T09:16:02;13.90;99.90
14252;DHT22;7210;51.502;10.722;2023-03-23T09:18:31;13.90;99.90
14252;DHT22;7210;51.502;10.722;2023-03-23T09:20:59;13.80;99.90
14252;DHT22;7210;51.502;10.722;2023-03-23T09:23:27;13.70;99.90
14252;DHT22;7210;51.502;10.722;2023-03-23T09:26:00;13.60;99.90
14252;DHT22;7210;51.502;10.722;2023-03-23T09:28:28;13.70;99.90
14252;DHT22;7210;51.502;10.722;2023-03-23T09:30:57;13.80;99.90
14252;DHT22;7210;51.502;10.722;2023-03-23T09:33:24;13.80;99.90
14252;DHT22;7210;51.502;10.722;2023-03-23T09:35:52;13.90;99.90
14252;DHT22;7210;51.502;10.722;2023-03-23T09:38:19;13.90;99.90
14252;DHT22;7210;51.502;10.722;2023-03-23T09:40:51;13.90;99.90
14252;DHT22;7210;51.502;10.722;2023-03-23T09:43:44;14.00;99.90
14252;DHT22;7210;51.502;10.722;2023-03-23T09:46:39;14.10;99.90
14252;DHT22;7210;51.502;10.722;2023-03-23T09:49:17;14.20;99.90
14252;DHT22;7210;51.502;10.722;2023-03-23T09:51:50;14.30;99.90
14252;DHT22;7210;51.502;10.722;2023-03-23T09:54:21;14.40;99.90
14252;DHT22;7210;51.502;10.722;2023-03-23T09:56:54;14.30;99.90
14252;DHT22;7210;51.502;10.722;2023-03-23T09:59:30;14.20;99.90
14252;DHT22;7210;51.502;10.722;2023-03-23T10:02:12;14.40;99.90
14252;DHT22;7210;51.502;10.722;2023-03-23T10:04:44;14.40;99.90
14252;DHT22;7210;51.502;10.722;2023-03-23T10:07:16;14.30;99.90
14252;DHT22;7210;51.502;10.722;2023-03-23T10:09:47;14.40;99.90
14252;DHT22;7210;51.502;10.722;2023-03-23T10:12:24;14.40;99.90
14252;DHT22;7210;51.502;10.722;2023-03-23T10:15:08;14.20;99.90
14252;DHT22;7210;51.502;10.722;2023-03-23T10:17:47;14.40;99.90
14252;DHT22;7210;51.502;10.722;2023-03-23T10:20:29;14.60;99.90
14252;DHT22;7210;51.502;10.722;2023-03-23T10:23:09;14.50;99.90
14252;DHT22;7210;51.502;10.722;2023-03-23T10:25:45;14.60;99.90
14252;DHT22;7210;51.502;10.722;2023-03-23T10:28:19;14.60;99.90
14252;DHT22;7210;51.502;10.722;2023-03-23T10:30:54;14.60;99.90
14252;DHT22;7210;51.502;10.722;2023-03-23T10:33:28;14.80;99.90
14252;DHT22;7210;51.502;10.722;2023-03-23T10:36:03;14.90;99.90
14252;DHT22;7210;51.502;10.722;2023-03-23T10:38:36;14.90;99.90
14252;DHT22;7210;51.502;10.722;2023-03-23T10:41:10;14.90;99.90
14252;DHT22;7210;51.502;10.722;2023-03-23T10:43:38;14.90;99.90
14252;DHT22;7210;51.502;10.722;2023-03-23T10:46:17;14.90;99.90
14252;DHT22;7210;51.502;10.722;2023-03-23T10:48:53;15.00;99.90
14252;DHT22;7210;51.502;10.722;2023-03-23T10:51:28;14.90;1.00
14252;DHT22;7210;51.502;10.722;2023-03-23T10:54:02;14.90;1.00
14252;DHT22;7210;51.502;10.722;2023-03-23T10:56:36;14.90;99.90
14252;DHT22;7210;51.502;10.722;2023-03-23T10:59:12;14.90;1.00
14252;DHT22;7210;51.502;10.722;2023-03-23T11:01:45;14.90;1.00
14252;DHT22;7210;51.502;10.722;2023-03-23T11:04:17;14.80;1.00
14252;DHT22;7210;51.502;10.722;2023-03-23T11:06:47;14.90;1.00
14252;DHT22;7210;51.502;10.722;2023-03-23T11:09:20;14.80;1.00
14252;DHT22;7210;51.502;10.722;2023-03-23T11:11:50;14.80;1.00
14252;DHT22;7210;51.502;10.722;2023-03-23T11:14:24;14.90;1.00
14252;DHT22;7210;51.502;10.722;2023-03-23T11:16:55;14.80;1.00
14252;DHT22;7210;51.502;10.722;2023-03-23T11:19:25;14.90;1.00
14252;DHT22;7210;51.502;10.722;2023-03-23T11:21:55;15.00;1.00
14252;DHT22;7210;51.502;10.722;2023-03-23T11:24:37;15.00;1.00
14252;DHT22;7210;51.502;10.722;2023-03-23T11:27:09;15.10;1.00
14252;DHT22;7210;51.502;10.722;2023-03-23T11:29:44;15.20;1.00
14252;DHT22;7210;51.502;10.722;2023-03-23T11:32:17;15.30;1.00
14252;DHT22;7210;51.502;10.722;2023-03-23T11:34:46;15.30;1.00
14252;DHT22;7210;51.502;10.722;2023-03-23T11:37:28;15.30;1.00
14252;DHT22;7210;51.502;10.722;2023-03-23T11:40:00;15.20;1.00
14252;DHT22;7210;51.502;10.722;2023-03-23T11:42:37;15.30;1.00
14252;DHT22;7210;51.502;10.722;2023-03-23T11:45:18;15.40;1.00
14252;DHT22;7210;51.502;10.722;2023-03-23T11:48:05;15.40;1.00
14252;DHT22;7210;51.502;10.722;2023-03-23T11:50:48;15.40;1.00
14252;DHT22;7210;51.502;10.722;2023-03-23T11:53:27;15.50;1.00
14252;DHT22;7210;51.502;10.722;2023-03-23T11:56:13;15.40;1.00
14252;DHT22;7210;51.502;10.722;2023-03-23T11:58:45;15.60;1.00
14252;DHT22;7210;51.502;10.722;2023-03-23T12:01:31;15.50;1.00
14252;DHT22;7210;51.502;10.722;2023-03-23T12:04:27;15.30;1.00
14252;DHT22;7210;51.502;10.722;2023-03-23T12:07:19;14.90;1.00
14252;DHT22;7210;51.502;10.722;2023-03-23T12:10:02;14.60;1.00
14252;DHT22;7210;51.502;10.722;2023-03-23T12:12:44;14.30;1.00
14252;DHT22;7210;51.502;10.722;2023-03-23T12:15:23;14.20;1.00
14252;DHT22;7210;51.502;10.722;2023-03-23T12:18:02;14.10;1.00
14252;DHT22;7210;51.502;10.722;2023-03-23T12:20:46;14.00;1.00
14252;DHT22;7210;51.502;10.722;2023-03-23T12:23:24;14.00;1.00
14252;DHT22;7210;51.502;10.722;2023-03-23T12:29:12;14.00;1.00
14252;DHT22;7210;51.502;10.722;2023-03-23T12:35:19;14.30;1.00
14252;DHT22;7210;51.502;10.722;2023-03-23T12:38:07;14.40;1.00
14252;DHT22;7210;51.502;10.722;2023-03-23T12:40:49;14.60;1.00
14252;DHT22;7210;51.502;10.722;2023-03-23T12:43:26;14.60;1.00
14252;DHT22;7210;51.502;10.722;2023-03-23T12:46:09;14.70;1.00
14252;DHT22;7210;51.502;10.722;2023-03-23T12:49:05;14.80;1.00
14252;DHT22;7210;51.502;10.722;2023-03-23T12:51:40;15.20;1.00
14252;DHT22;7210;51.502;10.722;2023-03-23T12:54:21;15.60;1.00
14252;DHT22;7210;51.502;10.722;2023-03-23T12:56:58;15.80;1.00
14252;DHT22;7210;51.502;10.722;2023-03-23T12:59:35;16.00;1.00
14252;DHT22;7210;51.502;10.722;2023-03-23T13:02:13;16.20;1.00
14252;DHT22;7210;51.502;10.722;2023-03-23T13:04:50;16.30;1.00
14252;DHT22;7210;51.502;10.722;2023-03-23T13:07:24;16.40;1.00
14252;DHT22;7210;51.502;10.722;2023-03-23T13:10:02;16.40;1.00
14252;DHT22;7210;51.502;10.722;2023-03-23T13:12:35;16.50;1.00
14252;DHT22;7210;51.502;10.722;2023-03-23T13:15:17;16.40;1.00
14252;DHT22;7210;51.502;10.722;2023-03-23T13:18:03;16.30;1.00
14252;DHT22;7210;51.502;10.722;2023-03-23T13:20:51;16.20;1.00
14252;DHT22;7210;51.502;10.722;2023-03-23T13:23:25;16.10;1.00
14252;DHT22;7210;51.502;10.722;2023-03-23T13:26:00;16.10;1.00
14252;DHT22;7210;51.502;10.722;2023-03-23T13:28:31;16.00;1.00
14252;DHT22;7210;51.502;10.722;2023-03-23T13:31:16;16.00;1.00
14252;DHT22;7210;51.502;10.722;2023-03-23T13:33:52;16.00;1.00
14252;DHT22;7210;51.502;10.722;2023-03-23T13:36:28;16.00;1.00
14252;DHT22;7210;51.502;10.722;2023-03-23T13:38:59;16.10;1.00
14252;DHT22;7210;51.502;10.722;2023-03-23T13:41:31;16.20;1.00
14252;DHT22;7210;51.502;10.722;2023-03-23T13:44:14;16.10;1.00
14252;DHT22;7210;51.502;10.722;2023-03-23T13:46:54;15.90;1.00
14252;DHT22;7210;51.502;10.722;2023-03-23T13:49:24;16.00;1.00
14252;DHT22;7210;51.502;10.722;2023-03-23T13:52:06;16.00;1.00
14252;DHT22;7210;51.502;10.722;2023-03-23T13:54:44;16.20;1.00
14252;DHT22;7210;51.502;10.722;2023-03-23T13:57:25;16.20;1.00
14252;DHT22;7210;51.502;10.722;2023-03-23T14:03:05;16.20;1.00
14252;DHT22;7210;51.502;10.722;2023-03-23T14:05:40;16.50;1.00
14252;DHT22;7210;51.502;10.722;2023-03-23T14:08:19;16.50;1.00
14252;DHT22;7210;51.502;10.722;2023-03-23T14:10:52;16.50;1.00
14252;DHT22;7210;51.502;10.722;2023-03-23T14:13:29;16.20;1.00
14252;DHT22;7210;51.502;10.722;2023-03-23T14:16:01;15.90;1.00
14252;DHT22;7210;51.502;10.722;2023-03-23T14:18:34;15.90;1.00
14252;DHT22;7210;51.502;10.722;2023-03-23T14:21:04;15.90;1.00
14252;DHT22;7210;51.502;10.722;2023-03-23T14:23:33;15.70;1.00
14252;DHT22;7210;51.502;10.722;2023-03-23T14:26:02;15.60;1.00
14252;DHT22;7210;51.502;10.722;2023-03-23T14:28:41;15.40;1.00
14252;DHT22;7210;51.502;10.722;2023-03-23T14:31:17;15.40;1.00
14252;DHT22;7210;51.502;10.722;2023-03-23T14:33:46;15.50;1.00
14252;DHT22;7210;51.502;10.722;2023-03-23T14:36:20;15.30;1.00
14252;DHT22;7210;51.502;10.722;2023-03-23T14:38:55;15.30;1.00
14252;DHT22;7210;51.502;10.722;2023-03-23T14:41:29;15.30;1.00
14252;DHT22;7210;51.502;10.722;2023-03-23T14:44:00;15.70;1.00
14252;DHT22;7210;51.502;10.722;2023-03-23T14:46:29;16.10;1.00
14252;DHT22;7210;51.502;10.722;2023-03-23T14:49:00;16.20;1.00
14252;DHT22;7210;51.502;10.722;2023-03-23T14:51:29;16.20;1.00
14252;DHT22;7210;51.502;10.722;2023-03-23T14:53:58;16.30;1.00
14252;DHT22;7210;51.502;10.722;2023-03-23T14:56:34;16.30;1.00
14252;DHT22;7210;51.502;10.722;2023-03-23T14:59:05;16.30;1.00
14252;DHT22;7210;51.502;10.722;2023-03-23T15:01:36;16.50;1.00
14252;DHT22;7210;51.502;10.722;2023-03-23T15:04:10;16.60;1.00
14252;DHT22;7210;51.502;10.722;2023-03-23T15:06:43;16.30;1.00
14252;DHT22;7210;51.502;10.722;2023-03-23T15:09:15;16.10;1.00
14252;DHT22;7210;51.502;10.722;2023-03-23T15:11:52;16.00;1.00
14252;DHT22;7210;51.502;10.722;2023-03-23T15:14:27;15.90;1.00
14252;DHT22;7210;51.502;10.722;2023-03-23T15:16:58;15.80;1.00
14252;DHT22;7210;51.502;10.722;2023-03-23T15:19:31;15.90;1.00
14252;DHT22;7210;51.502;10.722;2023-03-23T15:22:07;15.70;1.00
14252;DHT22;7210;51.502;10.722;2023-03-23T15:24:42;15.50;1.00
14252;DHT22;7210;51.502;10.722;2023-03-23T15:27:17;15.50;1.00
14252;DHT22;7210;51.502;10.722;2023-03-23T15:29:53;15.50;1.00
14252;DHT22;7210;51.502;10.722;2023-03-23T15:32:23;15.50;1.00
14252;DHT22;7210;51.502;10.722;2023-03-23T15:34:53;15.50;1.00
14252;DHT22;7210;51.502;10.722;2023-03-23T15:37:26;15.50;1.00
14252;DHT22;7210;51.502;10.722;2023-03-23T15:39:55;15.70;1.00
14252;DHT22;7210;51.502;10.722;2023-03-23T15:42:26;15.80;1.00
14252;DHT22;7210;51.502;10.722;2023-03-23T15:45:05;16.00;1.00
14252;DHT22;7210;51.502;10.722;2023-03-23T15:47:50;16.10;1.00
14252;DHT22;7210;51.502;10.722;2023-03-23T15:50:19;15.80;1.00
14252;DHT22;7210;51.502;10.722;2023-03-23T15:52:59;15.60;1.00
14252;DHT22;7210;51.502;10.722;2023-03-23T15:55:29;15.60;1.00
14252;DHT22;7210;51.502;10.722;2023-03-23T15:58:09;15.50;1.00
14252;DHT22;7210;51.502;10.722;2023-03-23T16:00:40;15.40;1.00
14252;DHT22;7210;51.502;10.722;2023-03-23T16:03:12;15.30;1.00
14252;DHT22;7210;51.502;10.722;2023-03-23T16:05:43;15.30;1.00
14252;DHT22;7210;51.502;10.722;2023-03-23T16:08:11;15.20;1.00
14252;DHT22;7210;51.502;10.722;2023-03-23T16:10:39;15.20;1.00
14252;DHT22;7210;51.502;10.722;2023-03-23T16:13:06;15.20;1.00
14252;DHT22;7210;51.502;10.722;2023-03-23T16:15:33;15.10;1.00
14252;DHT22;7210;51.502;10.722;2023-03-23T16:18:02;14.90;1.00
14252;DHT22;7210;51.502;10.722;2023-03-23T16:20:30;14.80;1.00
14252;DHT22;7210;51.502;10.722;2023-03-23T16:22:58;14.70;1.00
14252;DHT22;7210;51.502;10.722;2023-03-23T16:25:25;14.70;1.00
14252;DHT22;7210;51.502;10.722;2023-03-23T16:27:52;14.50;1.00
14252;DHT22;7210;51.502;10.722;2023-03-23T16:30:21;14.40;1.00
14252;DHT22;7210;51.502;10.722;2023-03-23T16:32:50;14.40;1.00
14252;DHT22;7210;51.502;10.722;2023-03-23T16:35:20;14.30;1.00
14252;DHT22;7210;51.502;10.722;2023-03-23T16:37:49;14.30;1.00
14252;DHT22;7210;51.502;10.722;2023-03-23T16:40:18;14.20;1.00
14252;DHT22;7210;51.502;10.722;2023-03-23T16:42:47;14.10;1.00
14252;DHT22;7210;51.502;10.722;2023-03-23T16:45:16;14.10;1.00
14252;DHT22;7210;51.502;10.722;2023-03-23T16:47:44;14.00;1.00